Time;durP1;ratioP1;P1;durP2;ratioP2;P2;SDS_P1;SDS_P2;PMS_P1;PMS_P2;Temp;Humidity;BMP_temperature;BMP_pressure;BME280_temperature;BME280_humidity;BME280_pressure;Samples;Min_cycle;Max_cycle;Signal;HPM_P1;HPM_P2
2023/06/30 00:00:56;;;;;;;;;;;28.40;99.90;;;;;;5053358;28;19909;-68
2023/06/30 00:03:22;;;;;;;;;;;28.50;99.90;;;;;;5052324;28;19913;-70
2023/06/30 00:05:49;;;;;;;;;;;28.50;99.90;;;;;;5053997;28;19954;-68
2023/06/30 00:08:15;;;;;;;;;;;28.40;99.90;;;;;;5054392;28;19904;-70
2023/06/30 00:10:41;;;;;;;;;;;28.40;99.90;;;;;;5053911;28;20121;-70
2023/06/30 00:13:08;;;;;;;;;;;28.50;99.90;;;;;;5057216;28;19908;-69
2023/06/30 00:15:34;;;;;;;;;;;28.50;99.90;;;;;;5073949;28;19901;-69
2023/06/30 00:18:00;;;;;;;;;;;28.50;99.90;;;;;;5073720;28;19905;-67
2023/06/30 00:20:26;;;;;;;;;;;28.60;99.90;;;;;;5073876;28;19905;-68
2023/06/30 00:22:53;;;;;;;;;;;28.60;99.90;;;;;;5070863;28;19946;-69
2023/06/30 00:25:19;;;;;;;;;;;28.50;99.90;;;;;;5053966;28;19904;-67
2023/06/30 00:27:45;;;;;;;;;;;28.50;99.90;;;;;;5054319;28;19904;-68
2023/06/30 00:30:14;;;;;;;;;;;28.50;99.90;;;;;;5053800;28;20003;-70
2023/06/30 00:32:41;;;;;;;;;;;28.50;99.90;;;;;;5053688;28;19909;-69
2023/06/30 00:35:07;;;;;;;;;;;28.60;99.90;;;;;;5067944;28;19915;-72
2023/06/30 00:37:33;;;;;;;;;;;28.50;99.90;;;;;;5053229;28;20250;-68
2023/06/30 00:39:59;;;;;;;;;;;28.70;99.90;;;;;;5053691;28;19958;-70
2023/06/30 00:42:25;;;;;;;;;;;28.70;99.90;;;;;;5053799;28;19954;-68
2023/06/30 00:44:51;;;;;;;;;;;28.60;99.90;;;;;;5053667;28;19976;-67
2023/06/30 00:47:17;;;;;;;;;;;28.70;99.90;;;;;;5053680;28;19952;-67
2023/06/30 00:49:44;;;;;;;;;;;28.60;99.90;;;;;;5047443;28;20336;-67
2023/06/30 00:52:10;;;;;;;;;;;28.60;99.90;;;;;;5052562;28;19904;-66
2023/06/30 00:54:36;;;;;;;;;;;28.70;99.90;;;;;;5048825;28;19913;-67
2023/06/30 00:57:05;;;;;;;;;;;28.70;99.90;;;;;;5042761;28;19971;-67
2023/06/30 00:59:31;;;;;;;;;;;28.70;99.90;;;;;;5037474;28;19915;-67
2023/06/30 01:02:00;;;;;;;;;;;28.80;99.90;;;;;;5051154;28;19909;-68
2023/06/30 01:04:44;;;;;;;;;;;28.70;99.90;;;;;;5037104;28;19924;-68
2023/06/30 01:07:13;;;;;;;;;;;28.80;99.90;;;;;;5053730;28;19919;-67
2023/06/30 01:09:45;;;;;;;;;;;28.80;99.90;;;;;;5057040;28;19966;-67
2023/06/30 01:12:11;;;;;;;;;;;28.80;99.90;;;;;;5057147;28;20371;-69
2023/06/30 01:14:38;;;;;;;;;;;28.80;99.90;;;;;;5057063;28;20346;-68
2023/06/30 01:17:05;;;;;;;;;;;28.90;99.90;;;;;;5057401;28;20250;-68
2023/06/30 01:19:34;;;;;;;;;;;29.10;99.90;;;;;;5057176;28;20140;-68
2023/06/30 01:22:04;;;;;;;;;;;29.10;99.90;;;;;;5055612;28;19908;-67
2023/06/30 01:24:33;;;;;;;;;;;29.00;99.90;;;;;;5057175;28;19904;-68
2023/06/30 01:27:00;;;;;;;;;;;29.00;99.90;;;;;;5055334;28;19913;-67
2023/06/30 01:29:26;;;;;;;;;;;29.10;99.90;;;;;;5075292;28;19904;-66
2023/06/30 01:31:52;;;;;;;;;;;29.00;99.90;;;;;;5077041;28;19904;-68
2023/06/30 01:34:19;;;;;;;;;;;29.00;99.90;;;;;;5062304;28;19915;-70
2023/06/30 01:36:45;;;;;;;;;;;29.10;99.90;;;;;;5056056;28;20352;-66
2023/06/30 01:39:11;;;;;;;;;;;29.10;99.90;;;;;;5056507;28;20365;-68
2023/06/30 01:41:37;;;;;;;;;;;29.00;99.90;;;;;;5056521;28;19942;-67
2023/06/30 01:44:03;;;;;;;;;;;29.00;99.90;;;;;;5055348;28;20345;-67
2023/06/30 01:46:30;;;;;;;;;;;;;;;;;;5064927;28;19919;-67
2023/06/30 01:48:56;;;;;;;;;;;;;;;;;;5076742;28;19987;-65
2023/06/30 01:51:22;;;;;;;;;;;;;;;;;;5075774;28;20168;-64
2023/06/30 01:53:48;;;;;;;;;;;;;;;;;;5064315;28;19909;-65
2023/06/30 01:56:14;;;;;;;;;;;;;;;;;;5056899;28;19909;-66
2023/06/30 01:58:41;;;;;;;;;;;29.10;99.90;;;;;;5053156;28;19916;-65
2023/06/30 02:01:07;;;;;;;;;;;29.10;99.90;;;;;;5056310;28;19912;-65
2023/06/30 02:03:33;;;;;;;;;;;29.10;99.90;;;;;;5055322;28;19923;-65
2023/06/30 02:05:59;;;;;;;;;;;29.10;99.90;;;;;;5054713;28;19956;-65
2023/06/30 02:08:25;;;;;;;;;;;29.20;99.90;;;;;;5056326;28;19908;-65
2023/06/30 02:10:51;;;;;;;;;;;29.30;99.90;;;;;;5056260;28;20384;-65
2023/06/30 02:13:18;;;;;;;113.28;35.60;;;29.40;99.90;;;;;;5054404;28;20437;-65
2023/06/30 02:15:44;;;;;;;71.22;31.88;;;29.40;99.90;;;;;;5054067;28;20521;-64
2023/06/30 02:18:13;;;;;;;66.60;30.67;;;29.60;99.90;;;;;;5056162;28;20074;-65
2023/06/30 02:20:39;;;;;;;63.08;30.35;;;29.60;99.90;;;;;;5056067;28;20021;-65
2023/06/30 02:23:06;;;;;;;60.83;29.98;;;29.60;99.90;;;;;;5051288;28;20025;-64
2023/06/30 02:25:32;;;;;;;1247.50;999.90;;;29.50;99.90;;;;;;5051456;28;20029;-64
2023/06/30 02:27:59;;;;;;;1415.05;999.90;;;29.50;99.90;;;;;;5058362;28;20371;-64
2023/06/30 02:30:26;;;;;;;1567.38;999.90;;;29.50;99.90;;;;;;5041464;28;20493;-65
2023/06/30 02:32:53;;;;;;;1452.40;999.90;;;29.50;99.90;;;;;;5037449;28;20036;-65
2023/06/30 02:35:19;;;;;;;1492.75;999.90;;;29.70;99.90;;;;;;5049202;28;20427;-64
2023/06/30 02:37:46;;;;;;;1647.93;999.90;;;29.70;99.90;;;;;;5053724;28;20033;-64
2023/06/30 02:40:12;;;;;;;1418.35;999.90;;;29.80;99.90;;;;;;5043871;28;20385;-64
2023/06/30 02:42:39;;;;;;;1638.03;999.90;;;29.90;99.90;;;;;;5071794;28;20033;-65
2023/06/30 02:45:06;;;;;;;1649.32;999.90;;;29.90;99.90;;;;;;5073996;28;20020;-65
2023/06/30 02:47:33;;;;;;;1621.63;999.90;;;29.90;99.90;;;;;;5055206;28;20035;-65
2023/06/30 02:50:05;;;;;;;1640.95;999.90;;;29.90;99.90;;;;;;5048940;28;20029;-67
2023/06/30 02:52:32;;;;;;;1661.82;999.90;;;30.00;99.90;;;;;;5050325;28;20047;-67
2023/06/30 02:54:58;;;;;;;1655.43;999.90;;;30.00;99.90;;;;;;5071864;23;20053;-65
2023/06/30 02:57:25;;;;;;;1682.95;999.90;;;30.00;99.90;;;;;;5052978;28;20509;-66
2023/06/30 02:59:52;;;;;;;1699.97;999.90;;;30.00;99.90;;;;;;5048157;28;20023;-66
2023/06/30 03:02:19;;;;;;;1660.05;999.90;;;30.20;99.90;;;;;;5047247;28;20021;-65
2023/06/30 03:04:45;;;;;;;1679.82;999.90;;;30.30;99.90;;;;;;5049400;28;20033;-63
2023/06/30 03:07:12;;;;;;;1669.25;999.90;;;30.30;99.90;;;;;;5051582;28;20017;-65
2023/06/30 03:09:38;;;;;;;1655.05;999.90;;;30.50;99.90;;;;;;5035694;28;20022;-65
2023/06/30 03:12:05;;;;;;;1651.55;999.90;;;30.50;99.90;;;;;;5046061;28;20018;-65
2023/06/30 03:14:32;;;;;;;1675.05;999.90;;;30.60;99.90;;;;;;5052531;28;20071;-66
2023/06/30 03:16:58;;;;;;;1663.82;999.90;;;30.60;99.90;;;;;;5050963;28;20103;-65
2023/06/30 03:19:25;;;;;;;1651.95;999.90;;;30.60;99.90;;;;;;5048936;28;20142;-66
2023/06/30 03:21:52;;;;;;;1691.60;999.90;;;30.60;99.90;;;;;;5049897;28;20032;-64
2023/06/30 03:24:18;;;;;;;1708.88;999.90;;;30.70;99.90;;;;;;5035887;28;20400;-64
2023/06/30 03:26:45;;;;;;;1678.60;999.90;;;30.70;99.90;;;;;;5043364;28;20454;-64
2023/06/30 03:29:11;;;;;;;1635.68;999.90;;;30.70;99.90;;;;;;5040169;28;20033;-64
2023/06/30 03:31:38;;;;;;;1623.03;999.90;;;30.70;99.90;;;;;;5038721;28;20045;-64
2023/06/30 03:34:04;;;;;;;1588.97;999.90;;;30.70;99.90;;;;;;5038378;28;20071;-66
2023/06/30 03:36:31;;;;;;;1569.82;999.90;;;30.80;99.90;;;;;;5034948;28;20278;-65
2023/06/30 03:38:57;;;;;;;1628.00;999.90;;;30.80;99.90;;;;;;5036857;28;20039;-64
2023/06/30 03:41:24;;;;;;;1651.22;999.90;;;30.80;99.90;;;;;;5044569;28;20016;-67
2023/06/30 03:43:50;;;;;;;1641.50;999.90;;;30.80;99.90;;;;;;5044943;28;20032;-66
2023/06/30 03:46:17;;;;;;;1619.38;999.90;;;30.80;99.90;;;;;;5045426;28;20393;-65
2023/06/30 03:48:44;;;;;;;1827.95;999.90;;;30.80;99.90;;;;;;5052805;28;20024;-69
2023/06/30 03:51:10;;;;;;;1798.25;999.90;;;30.80;99.90;;;;;;5052909;28;20021;-67
2023/06/30 03:53:37;;;;;;;1718.63;999.90;;;30.80;99.90;;;;;;5044396;28;20033;-64
2023/06/30 03:56:03;;;;;;;1843.25;999.90;;;30.80;99.90;;;;;;5046411;28;20057;-66
2023/06/30 03:58:31;;;;;;;1708.53;999.90;;;30.80;99.90;;;;;;5039473;28;20490;-64
2023/06/30 04:00:57;;;;;;;1706.63;999.90;;;30.90;99.90;;;;;;5034307;28;20030;-65
2023/06/30 04:03:25;;;;;;;1735.63;999.90;;;31.00;99.90;;;;;;5048931;28;20029;-64
2023/06/30 04:05:52;;;;;;;1748.18;999.90;;;31.00;99.90;;;;;;5034991;28;20031;-64
2023/06/30 04:08:19;;;;;;;1809.75;999.90;;;31.00;99.90;;;;;;5038248;28;20029;-65
2023/06/30 04:10:45;;;;;;;1801.70;999.90;;;31.00;99.90;;;;;;5044855;28;20061;-66
2023/06/30 04:13:12;;;;;;;1707.32;999.90;;;31.00;99.90;;;;;;5045472;28;20104;-68
2023/06/30 04:15:38;;;;;;;1798.13;999.90;;;31.00;99.90;;;;;;5042758;28;20053;-65
2023/06/30 04:18:05;;;;;;;1727.25;999.90;;;31.00;99.90;;;;;;5044858;28;20096;-65
2023/06/30 04:20:32;;;;;;;1754.13;999.90;;;31.10;99.90;;;;;;5046991;28;20066;-64
2023/06/30 04:22:58;;;;;;;1781.70;999.90;;;31.10;99.90;;;;;;5044660;28;20021;-64
2023/06/30 04:25:25;;;;;;;1759.68;999.90;;;31.00;99.90;;;;;;5047144;28;20108;-63
2023/06/30 04:27:51;;;;;;;1780.28;999.90;;;31.00;99.90;;;;;;5047369;28;20034;-64
2023/06/30 04:30:18;;;;;;;1765.15;999.90;;;31.00;99.90;;;;;;5051996;28;20021;-63
2023/06/30 04:32:45;;;;;;;1732.72;999.90;;;30.90;99.90;;;;;;5051603;28;20066;-64
2023/06/30 04:35:11;;;;;;;1779.72;999.90;;;30.90;99.90;;;;;;5045477;28;20493;-64
2023/06/30 04:37:40;;;;;;;1779.38;999.90;;;30.90;99.90;;;;;;5051649;28;20025;-65
2023/06/30 04:40:08;;;;;;;1706.45;999.90;;;30.80;99.90;;;;;;5033878;28;20044;-66
2023/06/30 04:42:35;;;;;;;1686.25;999.90;;;30.80;99.90;;;;;;5051559;28;20033;-66
2023/06/30 04:45:01;;;;;;;1701.97;999.90;;;30.80;99.90;;;;;;5044619;28;20029;-65
2023/06/30 04:47:28;;;;;;;1681.00;999.90;;;30.80;99.90;;;;;;5049989;28;20374;-67
2023/06/30 04:49:55;;;;;;;1700.70;999.90;;;30.80;99.90;;;;;;5047387;28;20191;-66
2023/06/30 04:52:22;;;;;;;1583.55;999.90;;;30.70;99.90;;;;;;5041655;28;20018;-66
2023/06/30 04:54:48;;;;;;;1508.50;999.90;;;30.70;99.90;;;;;;5046851;28;20037;-68
2023/06/30 04:57:15;;;;;;;1450.85;999.90;;;30.70;99.90;;;;;;5043872;28;20112;-67
2023/06/30 04:59:41;;;;;;;1439.55;999.90;;;30.80;99.90;;;;;;5033886;28;20025;-67
2023/06/30 05:02:08;;;;;;;1439.60;999.90;;;30.80;99.90;;;;;;5037929;28;20030;-64
2023/06/30 05:04:34;;;;;;;1448.90;999.90;;;30.70;99.90;;;;;;5048955;28;20347;-65
2023/06/30 05:07:01;;;;;;;1357.65;999.90;;;30.80;99.90;;;;;;5050957;28;20029;-64
2023/06/30 05:09:28;;;;;;;1262.18;999.90;;;30.80;99.90;;;;;;5052256;28;20017;-65
2023/06/30 05:11:54;;;;;;;1292.38;999.90;;;30.90;99.90;;;;;;5053555;28;20021;-64
2023/06/30 05:14:21;;;;;;;1297.00;999.90;;;30.90;99.90;;;;;;5050769;28;20017;-65
2023/06/30 05:16:47;;;;;;;1283.75;999.90;;;30.90;99.90;;;;;;5048276;28;20413;-66
2023/06/30 05:19:14;;;;;;;1373.50;999.90;;;31.00;99.90;;;;;;5044292;28;20051;-66
2023/06/30 05:21:40;;;;;;;1340.03;999.90;;;31.00;99.90;;;;;;5041480;28;20045;-65
2023/06/30 05:24:07;;;;;;;1432.63;999.90;;;31.10;99.90;;;;;;5044412;28;20029;-66
2023/06/30 05:26:33;;;;;;;1452.88;999.90;;;31.10;99.90;;;;;;5051177;28;20048;-65
2023/06/30 05:29:00;;;;;;;1672.85;999.90;;;31.10;99.90;;;;;;5046156;28;20036;-65
2023/06/30 05:31:27;;;;;;;1692.82;999.90;;;31.20;99.90;;;;;;5047587;28;20475;-67
2023/06/30 05:33:53;;;;;;;1675.18;999.90;;;31.30;99.90;;;;;;5042196;28;20510;-64
2023/06/30 05:36:20;;;;;;;1299.88;999.90;;;31.30;99.90;;;;;;5044412;28;20029;-69
2023/06/30 05:38:46;;;;;;;1714.78;999.90;;;31.50;99.90;;;;;;5045380;28;20036;-66
2023/06/30 05:41:13;;;;;;;1379.07;999.90;;;31.50;99.90;;;;;;5046618;28;20094;-69
2023/06/30 05:43:40;;;;;;;676.55;605.72;;;31.60;99.90;;;;;;5048791;28;20022;-66
2023/06/30 05:46:06;;;;;;;639.63;572.45;;;31.70;99.90;;;;;;5048968;28;20078;-66
2023/06/30 05:48:33;;;;;;;635.00;568.17;;;31.90;99.90;;;;;;5046875;28;20375;-66
2023/06/30 05:50:59;;;;;;;619.50;553.53;;;32.00;99.90;;;;;;5043844;28;20026;-66
2023/06/30 05:53:26;;;;;;;645.80;578.53;;;32.20;99.90;;;;;;5044853;28;20029;-67
2023/06/30 05:55:52;;;;;;;684.97;614.25;;;32.30;99.90;;;;;;5046913;28;20048;-67
2023/06/30 05:58:19;;;;;;;612.15;547.85;;;32.30;99.90;;;;;;5045768;28;20490;-66
2023/06/30 06:00:45;;;;;;;589.45;526.85;;;32.40;99.90;;;;;;5047111;28;20025;-66
2023/06/30 06:03:12;;;;;;;553.75;494.98;;;32.40;99.90;;;;;;5048981;28;20025;-66
2023/06/30 06:05:38;;;;;;;634.55;568.10;;;32.50;99.90;;;;;;5046619;28;20079;-65
2023/06/30 06:08:05;;;;;;;669.00;599.40;;;32.50;99.90;;;;;;5054700;28;20021;-64
2023/06/30 06:10:32;;;;;;;646.88;579.53;;;32.40;99.90;;;;;;5056558;28;20492;-63
2023/06/30 06:12:58;;;;;;;665.85;596.20;;;32.50;99.90;;;;;;5046989;28;20057;-63
2023/06/30 06:15:25;;;;;;;595.47;532.00;;;32.60;99.90;;;;;;5047160;28;20013;-64
2023/06/30 06:17:51;;;;;;;597.35;533.85;;;32.60;99.90;;;;;;5046287;28;20104;-63
2023/06/30 06:20:18;;;;;;;582.22;520.80;;;32.60;99.90;;;;;;5046540;28;20030;-62
2023/06/30 06:22:45;;;;;;;589.20;526.47;;;32.60;99.90;;;;;;5045186;28;20029;-63
2023/06/30 06:25:11;;;;;;;549.22;490.50;;;32.60;99.90;;;;;;5047942;28;20032;-63
2023/06/30 06:27:38;;;;;;;550.72;491.70;;;32.60;99.90;;;;;;5052188;28;20017;-62
2023/06/30 06:30:05;;;;;;;594.88;531.75;;;32.50;99.90;;;;;;5046100;28;20017;-62
2023/06/30 06:32:32;;;;;;;571.78;511.17;;;32.50;99.90;;;;;;5046648;28;20022;-62
2023/06/30 06:34:58;;;;;;;558.95;499.17;;;32.50;99.90;;;;;;5046968;28;20470;-63
2023/06/30 06:37:25;;;;;;;551.33;492.90;;;32.40;99.90;;;;;;5046805;28;20071;-62
2023/06/30 06:39:52;;;;;;;1489.97;999.90;;;32.40;99.90;;;;;;5046015;28;20496;-64
2023/06/30 06:42:18;;;;;;;547.72;489.25;;;32.30;99.90;;;;;;5044953;28;20033;-64
2023/06/30 06:44:45;;;;;;;531.00;473.08;;;32.30;99.90;;;;;;5047242;28;20025;-64
2023/06/30 06:47:49;;;;;;;486.88;433.73;;;32.30;99.90;;;;;;5044609;28;20032;-62
2023/06/30 06:50:15;;;;;;;439.77;391.38;;;32.30;99.90;;;;;;5041804;28;20462;-62
2023/06/30 06:52:42;;;;;;;566.15;505.20;;;32.30;99.90;;;;;;5047091;28;20527;-64
2023/06/30 06:55:08;;;;;;;414.50;368.88;;;32.30;99.90;;;;;;5044982;28;20048;-65
2023/06/30 06:57:35;;;;;;;678.10;605.60;;;32.40;99.90;;;;;;5044124;28;20115;-64
2023/06/30 07:00:02;;;;;;;454.90;405.52;;;32.40;99.90;;;;;;5045568;28;20082;-64
2023/06/30 07:02:28;;;;;;;401.02;358.30;;;32.40;99.90;;;;;;5046817;28;20071;-63
2023/06/30 07:04:55;;;;;;;423.48;377.65;;;32.50;99.90;;;;;;5045141;28;20025;-63
2023/06/30 07:07:21;;;;;;;456.40;407.40;;;32.50;99.90;;;;;;5045597;28;20073;-64
2023/06/30 07:09:48;;;;;;;436.25;389.40;;;32.50;99.90;;;;;;5051626;28;20021;-64
2023/06/30 07:12:14;;;;;;;420.48;376.00;;;32.50;99.90;;;;;;5046574;28;20036;-63
2023/06/30 07:14:41;;;;;;;378.70;338.20;;;32.50;99.90;;;;;;5050642;28;20103;-64
2023/06/30 07:17:07;;;;;;;352.30;315.80;;;32.50;99.90;;;;;;5046421;28;20550;-64
2023/06/30 07:19:34;;;;;;;320.63;288.15;;;32.50;99.90;;;;;;5046276;28;20072;-64
2023/06/30 07:22:00;;;;;;;301.13;270.88;;;32.60;99.90;;;;;;5048762;28;20017;-64
2023/06/30 07:24:27;;;;;;;261.45;236.05;;;32.60;99.90;;;;;;5046211;28;20052;-63
2023/06/30 07:26:53;;;;;;;204.60;185.18;;;32.50;99.90;;;;;;5047916;28;20033;-65
2023/06/30 07:29:20;;;;;;;259.83;234.65;;;32.60;99.90;;;;;;5045028;28;20028;-66
2023/06/30 07:31:46;;;;;;;207.80;188.15;;;32.60;99.90;;;;;;5039476;28;20079;-65
2023/06/30 07:34:14;;;;;;;351.85;314.77;;;32.60;99.90;;;;;;5045247;28;20017;-64
2023/06/30 07:36:41;;;;;;;297.02;266.75;;;32.60;99.90;;;;;;5039956;28;20079;-66
2023/06/30 07:39:07;;;;;;;236.02;211.95;;;32.60;99.90;;;;;;5044189;28;20112;-64
2023/06/30 07:41:34;;;;;;;268.77;241.52;;;32.70;99.90;;;;;;5043834;28;20447;-64
2023/06/30 07:44:04;;;;;;;262.73;236.52;;;32.70;99.90;;;;;;5044371;28;20548;-66
2023/06/30 07:46:31;;;;;;;1049.63;940.60;;;32.80;99.90;;;;;;5041855;28;20029;-66
2023/06/30 07:48:57;;;;;;;102.38;93.03;;;32.70;99.90;;;;;;5043806;28;20481;-67
2023/06/30 07:51:24;;;;;;;103.45;93.85;;;32.70;99.90;;;;;;5044832;28;20025;-66
2023/06/30 07:53:50;;;;;;;124.93;113.35;;;32.80;99.90;;;;;;5040711;28;20198;-67
2023/06/30 07:56:17;;;;;;;126.03;113.07;;;32.80;99.90;;;;;;5046697;28;20051;-64
2023/06/30 07:58:44;;;;;;;122.30;110.60;;;33.00;99.90;;;;;;5046136;28;20021;-65
2023/06/30 08:01:10;;;;;;;131.48;119.20;;;33.00;99.90;;;;;;5042189;28;20036;-66
2023/06/30 08:03:37;;;;;;;78.05;70.53;;;33.10;99.90;;;;;;5044558;28;20035;-64
2023/06/30 08:06:04;;;;;;;114.82;103.97;;;33.00;99.90;;;;;;5035174;28;20546;-66
2023/06/30 08:08:31;;;;;;;130.50;113.75;;;33.00;99.90;;;;;;5051436;28;20116;-66
2023/06/30 08:10:58;;;;;;;178.57;160.10;;;33.00;99.90;;;;;;5042851;28;20036;-63
2023/06/30 08:13:26;;;;;;;85.05;76.05;;;33.00;99.90;;;;;;5043792;28;20029;-64
2023/06/30 08:15:53;;;;;;;48.47;43.40;;;33.00;99.90;;;;;;5044257;28;20020;-66
2023/06/30 08:18:19;;;;;;;37.55;33.85;;;33.00;99.90;;;;;;5043560;28;20554;-65
2023/06/30 08:20:46;;;;;;;41.65;30.27;;;33.10;99.90;;;;;;5043859;28;20112;-66
2023/06/30 08:23:14;;;;;;;36.30;32.20;;;33.20;99.90;;;;;;5034304;28;20028;-65
2023/06/30 08:25:40;;;;;;;39.88;34.67;;;33.20;99.90;;;;;;5034310;28;20067;-65
2023/06/30 08:28:07;;;;;;;32.80;27.80;;;33.20;99.90;;;;;;5034369;28;20049;-66
2023/06/30 08:30:34;;;;;;;38.05;28.95;;;33.30;99.90;;;;;;5035107;28;20013;-66
2023/06/30 08:33:00;;;;;;;29.63;23.42;;;33.30;99.90;;;;;;5036110;28;20090;-65
2023/06/30 08:35:27;;;;;;;42.20;37.75;;;33.40;99.90;;;;;;5049927;28;20979;-66
2023/06/30 08:37:53;;;;;;;37.63;33.10;;;33.50;99.90;;;;;;5041278;28;20021;-66
2023/06/30 08:40:27;;;;;;;39.55;33.65;;;33.40;99.90;;;;;;5042394;28;20120;-66
2023/06/30 08:42:55;;;;;;;58.85;51.70;;;33.30;99.90;;;;;;5044576;28;20021;-65
2023/06/30 08:45:28;;;;;;;50.53;36.33;;;33.40;99.90;;;;;;5045353;28;20386;-66
2023/06/30 08:48:07;;;;;;;44.55;37.53;;;33.40;99.90;;;;;;5043459;28;20091;-65
2023/06/30 08:50:34;;;;;;;73.25;66.63;;;33.40;99.90;;;;;;5044988;28;20104;-66
2023/06/30 08:53:02;;;;;;;49.95;45.40;;;33.40;99.90;;;;;;5042376;28;20020;-64
2023/06/30 08:55:29;;;;;;;71.72;60.42;;;33.40;99.90;;;;;;5040994;28;20115;-65
2023/06/30 08:57:57;;;;;;;63.60;41.45;;;33.40;99.90;;;;;;5045941;28;20021;-66
2023/06/30 09:00:24;;;;;;;56.50;40.20;;;33.30;99.90;;;;;;5050137;28;20131;-65
2023/06/30 09:02:53;;;;;;;38.30;29.88;;;33.20;99.90;;;;;;5053158;28;20036;-66
2023/06/30 09:05:23;;;;;;;51.00;39.42;;;33.00;99.90;;;;;;5033832;28;20083;-67
2023/06/30 09:07:57;;;;;;;39.47;24.95;;;32.90;99.90;;;;;;5047809;28;20021;-66
2023/06/30 09:10:34;;;;;;;34.33;31.10;;;32.60;99.90;;;;;;5052394;28;20025;-67
2023/06/30 09:13:01;;;;;;;37.33;33.58;;;32.30;99.90;;;;;;5048245;28;20029;-66
2023/06/30 09:15:28;;;;;;;33.95;25.95;;;32.00;99.90;;;;;;5052938;28;20384;-66
2023/06/30 09:17:55;;;;;;;439.20;384.63;;;31.80;99.90;;;;;;5052063;28;20370;-66
2023/06/30 09:20:22;;;;;;;501.70;444.00;;;31.30;99.90;;;;;;5049083;28;20029;-65
2023/06/30 10:51:35;;;;;;;252.73;228.27;;;28.30;99.90;;;;;;5089774;27;20464;-63
2023/06/30 10:54:02;;;;;;;150.95;136.82;;;28.30;99.90;;;;;;5078681;28;20251;-63
2023/06/30 10:56:29;;;;;;;719.63;643.88;;;28.40;99.90;;;;;;5076383;28;20012;-64
2023/06/30 10:58:58;;;;;;;253.82;229.15;;;28.40;99.90;;;;;;5079366;28;20051;-63
2023/06/30 11:01:27;;;;;;;187.00;169.75;;;28.50;99.90;;;;;;5078887;28;20048;-65
2023/06/30 11:03:56;;;;;;;213.30;193.27;;;28.60;99.90;;;;;;5070104;28;20029;-66
2023/06/30 11:06:24;;;;;;;169.82;154.77;;;28.70;99.90;;;;;;5074610;28;20021;-67
2023/06/30 11:09:00;;;;;;;199.90;180.43;;;28.80;99.90;;;;;;5078540;28;20033;-67
2023/06/30 11:11:27;;;;;;;196.20;177.77;;;29.00;99.90;;;;;;5078543;28;20536;-67
2023/06/30 11:14:14;;;;;;;232.93;209.23;;;29.10;99.90;;;;;;5080537;28;20044;-67
2023/06/30 11:17:05;;;;;;;218.27;197.13;;;29.20;99.90;;;;;;5077532;28;20017;-68
2023/06/30 11:19:32;;;;;;;217.67;196.57;;;29.20;99.90;;;;;;5080106;28;20036;-67
2023/06/30 11:22:24;;;;;;;261.05;235.68;;;29.20;99.90;;;;;;5078866;28;20347;-66
2023/06/30 11:24:51;;;;;;;;;;;29.20;99.90;;;;;;5080709;28;20023;-66
2023/06/30 11:27:19;;;;;;;180.68;163.57;;;29.20;99.90;;;;;;5078477;28;19905;-65
2023/06/30 11:29:47;;;;;;;584.60;525.42;;;29.20;99.90;;;;;;5066325;28;20163;-64
2023/06/30 11:32:17;;;;;;;354.15;317.52;;;29.10;99.90;;;;;;5054261;28;20021;-65
2023/06/30 11:34:45;;;;;;;216.10;194.80;;;29.10;99.90;;;;;;5054266;28;20021;-65
2023/06/30 11:37:11;;;;;;;44.88;33.83;;;29.10;99.90;;;;;;5057920;28;20032;-65
2023/06/30 11:39:38;;;;;;;62.22;37.00;;;29.20;99.90;;;;;;5055373;28;20017;-65
2023/06/30 11:42:05;;;;;;;66.57;38.47;;;29.10;99.90;;;;;;5058957;28;20108;-67
2023/06/30 11:44:37;;;;;;;84.15;43.35;;;29.10;99.90;;;;;;5060337;28;20027;-65
2023/06/30 11:47:04;;;;;;;89.97;44.42;;;29.10;99.90;;;;;;5054301;28;20033;-64
2023/06/30 11:49:36;;;;;;;81.47;41.42;;;29.00;99.90;;;;;;5055334;28;20040;-66
2023/06/30 11:52:07;;;;;;;74.72;39.83;;;29.10;99.90;;;;;;5056678;28;20042;-66
2023/06/30 11:54:34;;;;;;;80.03;37.35;;;29.10;99.90;;;;;;5057207;28;20543;-65
2023/06/30 11:57:01;;;;;;;78.85;37.88;;;29.10;99.90;;;;;;5057415;28;20035;-66
2023/06/30 11:59:28;;;;;;;72.07;35.22;;;29.10;99.90;;;;;;5059186;28;20060;-67
2023/06/30 12:01:54;;;;;;;75.32;36.78;;;29.00;99.90;;;;;;5050066;28;20029;-66
2023/06/30 12:04:30;;;;;;;73.95;37.38;;;29.00;99.90;;;;;;5028805;28;20030;-66
2023/06/30 12:06:57;;;;;;;70.68;38.28;;;29.00;99.90;;;;;;5028982;28;20419;-66
2023/06/30 12:09:23;;;;;;;69.13;37.88;;;29.00;99.90;;;;;;5031102;28;20024;-65
2023/06/30 12:11:50;;;;;;;77.88;44.22;;;29.10;99.90;;;;;;5030942;28;20052;-65
2023/06/30 12:14:21;;;;;;;80.38;46.45;;;29.20;99.90;;;;;;5030240;28;20044;-64
2023/06/30 12:16:49;;;;;;;79.20;39.60;;;29.20;99.90;;;;;;5033405;28;20024;-67
2023/06/30 12:19:16;;;;;;;64.40;35.78;;;29.30;99.90;;;;;;5037732;28;20022;-67
2023/06/30 12:21:56;;;;;;;60.97;32.75;;;29.20;99.90;;;;;;5040673;28;20120;-64
2023/06/30 12:24:23;;;;;;;62.35;30.48;;;29.20;99.90;;;;;;5044650;28;20030;-65
2023/06/30 12:26:51;;;;;;;53.70;32.67;;;29.10;99.90;;;;;;5050789;28;20021;-65
2023/06/30 12:29:18;;;;;;;50.55;30.17;;;29.10;99.90;;;;;;5026229;28;20113;-65
2023/06/30 12:31:47;;;;;;;55.08;30.30;;;29.10;99.90;;;;;;5029981;28;20486;-65
2023/06/30 12:34:29;;;;;;;59.30;32.65;;;29.10;99.90;;;;;;5033385;28;20549;-66
2023/06/30 12:36:56;;;;;;;64.95;36.92;;;29.10;99.90;;;;;;5033342;28;20035;-65
2023/06/30 12:39:23;;;;;;;114.20;71.43;;;29.10;99.90;;;;;;5034267;28;20025;-66
2023/06/30 12:41:49;;;;;;;115.20;69.25;;;29.20;99.90;;;;;;5045121;28;20026;-66
2023/06/30 12:44:16;;;;;;;202.10;136.52;;;29.20;99.90;;;;;;5046534;28;20028;-68
2023/06/30 12:46:42;;;;;;;113.80;72.15;;;29.20;99.90;;;;;;5044739;28;20495;-65
2023/06/30 12:49:10;;;;;;;133.57;82.30;;;29.30;99.90;;;;;;5039312;28;20049;-66
2023/06/30 12:51:39;;;;;;;125.63;84.45;;;29.30;99.90;;;;;;5038684;28;20049;-65
2023/06/30 12:54:06;;;;;;;140.23;90.93;;;29.30;99.90;;;;;;5035468;28;20025;-64
2023/06/30 12:56:33;;;;;;;153.25;91.15;;;29.30;99.90;;;;;;5034652;28;20176;-65
2023/06/30 12:59:00;;;;;;;172.77;109.57;;;29.30;99.90;;;;;;5037907;28;20103;-66
2023/06/30 13:01:27;;;;;;;74.40;48.60;;;29.30;99.90;;;;;;5046223;28;20029;-66
2023/06/30 13:03:53;;;;;;;62.38;38.47;;;29.40;99.90;;;;;;5046479;28;20022;-66
2023/06/30 13:06:20;;;;;;;167.07;117.45;;;29.40;99.90;;;;;;5044683;28;20078;-68
2023/06/30 13:08:47;;;;;;;235.95;165.48;;;29.40;99.90;;;;;;5041963;28;20022;-67
2023/06/30 13:11:13;;;;;;;184.13;132.85;;;29.30;99.90;;;;;;5038805;28;20033;-67
2023/06/30 13:13:40;;;;;;;137.98;87.97;;;29.30;99.90;;;;;;5039654;28;20394;-67
2023/06/30 13:16:06;;;;;;;122.03;79.35;;;29.30;99.90;;;;;;5029406;28;20076;-66
2023/06/30 13:18:33;;;;;;;86.28;62.53;;;29.30;99.90;;;;;;5040981;28;20017;-65
2023/06/30 13:21:00;;;;;;;66.53;46.33;;;29.30;99.90;;;;;;5034329;28;20025;-66
2023/06/30 13:23:27;;;;;;;58.47;37.65;;;29.30;99.90;;;;;;5041402;28;20429;-66
2023/06/30 13:25:53;;;;;;;53.67;32.13;;;29.40;99.90;;;;;;5042511;28;20025;-66
2023/06/30 13:28:20;;;;;;;49.35;33.00;;;29.30;99.90;;;;;;5043122;28;21032;-66
2023/06/30 13:30:47;;;;;;;86.45;59.28;;;29.30;99.90;;;;;;5032893;28;20021;-66
2023/06/30 13:33:17;;;;;;;102.13;75.55;;;29.30;99.90;;;;;;5033606;28;20025;-66
2023/06/30 13:35:44;;;;;;;158.57;108.15;;;29.30;99.90;;;;;;5032692;28;20029;-64
2023/06/30 13:38:11;;;;;;;117.65;83.90;;;29.30;99.90;;;;;;5034411;28;20014;-66
2023/06/30 13:40:38;;;;;;;86.35;62.13;;;29.30;99.90;;;;;;5037678;28;20049;-65
2023/06/30 13:43:05;;;;;;;56.55;35.17;;;29.30;99.90;;;;;;5038569;28;20386;-65
2023/06/30 13:45:32;;;;;;;39.88;24.30;;;29.30;99.90;;;;;;5041421;28;20029;-67
2023/06/30 13:47:58;;;;;;;40.75;23.25;;;29.30;99.90;;;;;;5042061;28;20029;-65
2023/06/30 13:50:25;;;;;;;40.63;25.27;;;29.30;99.90;;;;;;5043603;28;20045;-65
2023/06/30 13:52:52;;;;;;;41.60;23.70;;;29.30;99.90;;;;;;5036636;28;20489;-65
2023/06/30 13:55:19;;;;;;;36.90;23.27;;;29.30;99.90;;;;;;5032484;28;20021;-66
2023/06/30 13:57:45;;;;;;;31.08;22.92;;;29.30;99.90;;;;;;5035286;28;20025;-67
2023/06/30 14:00:12;;;;;;;40.42;24.77;;;29.20;99.90;;;;;;5034122;28;20033;-66
2023/06/30 14:02:39;;;;;;;37.13;24.88;;;29.20;99.90;;;;;;5034242;28;20505;-66